Time;durP1;ratioP1;P1;durP2;ratioP2;P2;SDS_P1;SDS_P2;PMS_P1;PMS_P2;Temp;Humidity;BMP_temperature;BMP_pressure;BME280_temperature;BME280_humidity;BME280_pressure;Samples;Min_cycle;Max_cycle;Signal;HPM_P1;HPM_P2
2023/07/23 00:00:24;;;;;;;16.10;11.25;;;14.20;99.90;;;;;;5118322;27;20051;-39
2023/07/23 00:02:50;;;;;;;18.10;11.60;;;14.20;99.90;;;;;;5118037;27;20051;-39
2023/07/23 00:05:15;;;;;;;15.35;11.30;;;14.20;99.90;;;;;;5099441;27;20051;-39
2023/07/23 00:07:41;;;;;;;21.10;10.80;;;14.10;99.90;;;;;;5116120;27;20054;-39
2023/07/23 00:10:09;;;;;;;23.02;11.68;;;14.10;99.90;;;;;;5117275;27;20050;-40
2023/07/23 00:12:35;;;;;;;18.38;11.82;;;14.20;99.90;;;;;;5116938;27;20495;-39
2023/07/23 00:15:02;;;;;;;20.73;12.57;;;14.10;99.90;;;;;;5094772;27;20062;-39
2023/07/23 00:17:27;;;;;;;18.08;10.80;;;14.10;99.90;;;;;;5117149;27;20127;-39
2023/07/23 00:19:53;;;;;;;18.75;10.45;;;14.10;99.90;;;;;;5118915;27;20221;-39
2023/07/23 00:22:19;;;;;;;17.10;11.77;;;14.10;99.90;;;;;;5117632;27;20473;-39
2023/07/23 00:24:45;;;;;;;18.70;11.85;;;14.10;99.90;;;;;;5111549;27;20089;-39
2023/07/23 00:27:13;;;;;;;21.27;12.45;;;14.10;99.90;;;;;;5097238;27;20089;-39
2023/07/23 00:29:40;;;;;;;19.00;12.18;;;14.10;99.90;;;;;;5117512;27;20156;-39
2023/07/23 00:32:07;;;;;;;20.20;12.13;;;14.10;99.90;;;;;;5117009;27;20115;-39
2023/07/23 00:34:32;;;;;;;18.67;12.65;;;14.20;99.90;;;;;;5117933;27;20142;-42
2023/07/23 00:36:58;;;;;;;20.20;13.68;;;14.20;99.90;;;;;;5116413;27;20364;-39
2023/07/23 00:39:24;;;;;;;20.45;13.90;;;14.10;99.90;;;;;;5116084;27;20513;-39
2023/07/23 00:41:50;;;;;;;21.30;13.90;;;14.10;99.90;;;;;;5135206;27;20103;-39
2023/07/23 00:44:16;;;;;;;23.15;14.55;;;14.10;99.90;;;;;;5120548;27;20153;-39
2023/07/23 00:46:42;;;;;;;23.55;14.95;;;14.10;99.90;;;;;;5116703;27;20332;-39
2023/07/23 00:49:09;;;;;;;23.10;15.13;;;14.10;99.90;;;;;;5115673;27;20583;-39
2023/07/23 00:51:35;;;;;;;20.42;14.27;;;14.10;99.90;;;;;;5117504;27;20051;-39
2023/07/23 00:54:03;;;;;;;22.58;15.10;;;14.10;99.90;;;;;;5117396;27;20043;-39
2023/07/23 00:56:30;;;;;;;24.52;15.65;;;14.10;99.90;;;;;;5116976;27;20047;-39
2023/07/23 00:58:56;;;;;;;23.85;15.40;;;14.10;99.90;;;;;;5116022;27;20054;-39
2023/07/23 01:01:22;;;;;;;26.75;14.70;;;14.00;99.90;;;;;;5116917;27;20039;-39
2023/07/23 01:03:49;;;;;;;22.38;15.25;;;14.00;99.90;;;;;;5116445;27;20404;-39
2023/07/23 01:06:17;;;;;;;19.10;14.43;;;14.10;99.90;;;;;;5116613;27;20427;-39
2023/07/23 01:08:45;;;;;;;25.23;15.43;;;14.00;99.90;;;;;;5115704;27;20362;-39
2023/07/23 01:11:11;;;;;;;30.27;16.67;;;14.10;99.90;;;;;;5098322;27;20053;-39
2023/07/23 01:13:38;;;;;;;25.20;14.73;;;14.10;99.90;;;;;;5116889;27;20130;-40
2023/07/23 01:16:07;;;;;;;22.05;13.65;;;14.10;99.90;;;;;;5112227;27;20336;-39
2023/07/23 01:18:40;;;;;;;21.10;13.25;;;14.10;99.90;;;;;;5115463;27;20128;-39
2023/07/23 01:21:06;;;;;;;23.02;15.95;;;14.10;99.90;;;;;;5117280;27;20047;-39
2023/07/23 01:23:32;;;;;;;20.58;13.27;;;14.00;99.90;;;;;;5111780;27;20582;-39
2023/07/23 01:25:58;;;;;;;21.77;13.82;;;14.00;99.90;;;;;;5116995;27;20055;-39
2023/07/23 01:28:24;;;;;;;23.65;13.95;;;14.10;99.90;;;;;;5116190;27;20099;-39
2023/07/23 01:30:50;;;;;;;22.55;13.73;;;14.10;99.90;;;;;;5110262;27;20142;-39
2023/07/23 01:33:16;;;;;;;24.52;14.13;;;14.10;99.90;;;;;;5119434;27;20046;-39
2023/07/23 01:35:44;;;;;;;21.50;14.48;;;14.00;99.90;;;;;;5138122;27;20508;-39
2023/07/23 01:38:11;;;;;;;24.52;14.73;;;14.00;99.90;;;;;;5121228;27;20375;-39
2023/07/23 01:40:37;;;;;;;23.65;14.60;;;14.00;99.90;;;;;;5110333;27;20043;-39
2023/07/23 01:43:03;;;;;;;25.75;14.38;;;13.90;99.90;;;;;;5119567;27;20100;-39
2023/07/23 01:45:29;;;;;;;21.92;13.68;;;14.00;99.90;;;;;;5115652;27;20050;-39
2023/07/23 01:47:55;;;;;;;18.98;12.50;;;13.90;99.90;;;;;;5115454;27;20451;-39
2023/07/23 01:50:21;;;;;;;19.92;13.63;;;14.00;99.90;;;;;;5136177;27;20141;-39
2023/07/23 01:52:47;;;;;;;22.55;12.38;;;13.90;99.90;;;;;;5121631;27;20584;-39
2023/07/23 01:55:13;;;;;;;20.52;13.30;;;14.00;99.90;;;;;;5095907;27;20124;-39
2023/07/23 01:57:38;;;;;;;19.45;12.35;;;13.90;99.90;;;;;;5095602;27;20051;-39
2023/07/23 02:00:06;;;;;;;18.23;11.93;;;13.90;99.90;;;;;;5115010;27;20053;-39
2023/07/23 02:02:31;;;;;;;18.73;12.85;;;14.00;99.90;;;;;;5074071;27;20035;-39
2023/07/23 02:04:57;;;;;;;16.58;11.85;;;14.00;99.90;;;;;;5114459;27;20062;-39
2023/07/23 02:07:23;;;;;;;16.15;11.73;;;13.90;99.90;;;;;;5112798;27;20532;-39
2023/07/23 02:09:49;;;;;;;19.52;13.32;;;14.00;99.90;;;;;;5115645;27;20403;-39
2023/07/23 02:12:15;;;;;;;18.23;11.82;;;14.00;99.90;;;;;;5115625;27;20043;-39
2023/07/23 02:14:41;;;;;;;20.00;12.43;;;14.00;99.90;;;;;;5111146;27;20084;-39
2023/07/23 02:17:06;;;;;;;21.17;13.07;;;14.00;99.90;;;;;;5113818;27;20213;-39
2023/07/23 02:19:32;;;;;;;17.25;12.77;;;14.00;99.90;;;;;;5114975;27;20090;-39
2023/07/23 02:21:58;;;;;;;15.13;11.63;;;14.00;99.90;;;;;;5115686;27;20121;-39
2023/07/23 02:24:24;;;;;;;18.60;13.02;;;14.10;99.90;;;;;;5116836;27;20404;-39
2023/07/23 02:26:49;;;;;;;20.05;13.23;;;13.90;99.90;;;;;;5135378;27;20397;-39
2023/07/23 02:29:15;;;;;;;18.75;12.00;;;14.10;99.90;;;;;;5135655;27;20058;-39
2023/07/23 02:31:41;;;;;;;20.85;13.27;;;14.00;99.90;;;;;;5136451;27;20058;-39
2023/07/23 02:34:07;;;;;;;18.02;12.25;;;14.00;99.90;;;;;;5136069;27;20485;-39
2023/07/23 02:36:34;;;;;;;16.92;12.35;;;14.00;99.90;;;;;;5136327;27;20043;-39
2023/07/23 02:39:00;;;;;;;17.88;13.57;;;14.10;99.90;;;;;;5117386;27;20279;-39
2023/07/23 02:41:26;;;;;;;20.27;13.43;;;14.10;99.90;;;;;;5136837;27;20053;-39
2023/07/23 02:43:53;;;;;;;19.83;12.95;;;14.10;99.90;;;;;;5123840;27;20049;-39
2023/07/23 02:46:18;;;;;;;18.20;12.93;;;14.00;99.90;;;;;;5115649;27;20103;-39
2023/07/23 02:48:44;;;;;;;21.92;12.93;;;14.00;99.90;;;;;;5096115;28;20051;-39
2023/07/23 02:51:10;;;;;;;19.45;12.68;;;14.00;99.90;;;;;;5115118;27;20055;-39
2023/07/23 02:53:35;;;;;;;15.80;12.27;;;14.10;99.90;;;;;;5115207;27;20566;-39
2023/07/23 02:56:01;;;;;;;19.77;13.80;;;14.10;99.90;;;;;;5115153;27;20553;-40
2023/07/23 02:58:27;;;;;;;16.50;13.25;;;14.10;99.90;;;;;;5114231;28;20104;-39
2023/07/23 03:00:55;;;;;;;17.38;13.00;;;14.10;99.90;;;;;;5115153;27;20144;-39
2023/07/23 03:03:21;;;;;;;17.02;13.23;;;14.00;99.90;;;;;;5100243;27;20387;-39
2023/07/23 03:05:46;;;;;;;20.98;13.32;;;14.10;99.90;;;;;;5119096;27;20074;-39
2023/07/23 03:08:12;;;;;;;16.50;12.07;;;14.10;99.90;;;;;;5099621;27;20098;-39
2023/07/23 03:10:40;;;;;;;20.23;13.43;;;14.20;99.90;;;;;;5119347;27;20099;-39
2023/07/23 03:13:06;;;;;;;20.67;12.98;;;14.20;99.90;;;;;;5101187;27;20051;-39
2023/07/23 03:15:32;;;;;;;20.05;13.32;;;14.10;99.90;;;;;;5097596;27;20059;-39
2023/07/23 03:17:57;;;;;;;17.08;13.85;;;14.10;99.90;;;;;;5118259;27;20382;-39
2023/07/23 03:20:23;;;;;;;17.23;12.60;;;14.10;99.90;;;;;;5119365;27;20572;-39
2023/07/23 03:22:49;;;;;;;19.23;12.82;;;14.10;99.90;;;;;;5100703;27;20066;-39
2023/07/23 03:25:16;;;;;;;19.38;13.18;;;14.10;99.90;;;;;;5127569;27;20089;-39
2023/07/23 03:27:43;;;;;;;22.25;12.63;;;14.20;99.90;;;;;;5139177;27;20047;-39
2023/07/23 03:30:09;;;;;;;21.90;12.50;;;14.20;99.90;;;;;;5139206;27;20047;-39
2023/07/23 03:32:35;;;;;;;18.27;13.00;;;14.10;99.90;;;;;;5120100;27;20050;-39
2023/07/23 03:35:01;;;;;;;17.33;13.30;;;14.10;99.90;;;;;;5138642;27;20070;-39
2023/07/23 03:37:27;;;;;;;17.27;12.40;;;14.10;99.90;;;;;;5101939;27;20382;-39
2023/07/23 03:39:53;;;;;;;16.17;12.48;;;14.10;99.90;;;;;;5120800;27;20042;-39
2023/07/23 03:42:19;;;;;;;19.17;12.02;;;14.10;99.90;;;;;;5139259;27;20118;-39
2023/07/23 03:44:45;;;;;;;17.60;11.77;;;14.00;99.90;;;;;;5114349;27;20107;-39
2023/07/23 03:47:12;;;;;;;18.23;12.40;;;14.20;99.90;;;;;;5116969;27;20107;-40
2023/07/23 03:49:37;;;;;;;20.98;13.07;;;14.10;99.90;;;;;;5118004;27;20047;-40
2023/07/23 03:52:04;;;;;;;18.83;14.00;;;14.10;99.90;;;;;;5117807;27;20078;-41
2023/07/23 03:54:30;;;;;;;18.85;12.98;;;14.10;99.90;;;;;;5099890;27;20120;-40
2023/07/23 03:56:56;;;;;;;22.65;13.82;;;14.10;99.90;;;;;;5117266;27;20155;-39
2023/07/23 03:59:26;;;;;;;19.77;13.93;;;14.20;99.90;;;;;;5117754;27;20051;-39
2023/07/23 04:01:52;;;;;;;20.17;13.98;;;14.20;99.90;;;;;;5117108;27;20047;-39
2023/07/23 04:04:17;;;;;;;22.13;14.27;;;14.20;99.90;;;;;;5116605;27;20564;-39
2023/07/23 04:06:43;;;;;;;21.15;13.27;;;14.20;99.90;;;;;;5114663;27;20043;-40
2023/07/23 04:09:09;;;;;;;23.40;14.60;;;14.20;99.90;;;;;;5099265;27;20461;-40
2023/07/23 04:11:34;;;;;;;19.40;14.13;;;14.20;99.90;;;;;;5117660;27;20455;-39
2023/07/23 04:14:00;;;;;;;20.05;14.55;;;14.20;99.90;;;;;;5114802;27;20047;-39
2023/07/23 04:16:25;;;;;;;18.58;13.85;;;14.10;99.90;;;;;;5115390;27;20049;-39
2023/07/23 04:18:51;;;;;;;23.80;15.32;;;14.20;99.90;;;;;;5116457;27;20051;-39
2023/07/23 04:21:24;;;;;;;21.20;14.88;;;14.10;99.90;;;;;;5116872;27;20501;-39
2023/07/23 04:23:51;;;;;;;21.25;15.38;;;14.10;99.90;;;;;;5111419;27;20082;-39
2023/07/23 04:26:19;;;;;;;22.27;15.35;;;14.20;99.90;;;;;;5117752;27;20424;-39
2023/07/23 04:28:45;;;;;;;23.30;15.98;;;14.20;99.90;;;;;;5115893;27;20520;-39
2023/07/23 04:31:11;;;;;;;21.90;15.07;;;14.20;99.90;;;;;;5117593;27;20078;-39
2023/07/23 04:33:37;;;;;;;23.27;16.60;;;14.30;99.90;;;;;;5116811;27;20125;-39
2023/07/23 04:36:04;;;;;;;24.92;15.10;;;14.20;99.90;;;;;;5127735;27;20072;-40
2023/07/23 04:38:29;;;;;;;22.00;14.48;;;14.30;99.90;;;;;;5118391;27;20469;-39
2023/07/23 04:40:55;;;;;;;23.70;14.82;;;14.20;99.90;;;;;;5119447;27;20130;-39
2023/07/23 04:43:21;;;;;;;23.50;15.60;;;14.30;99.90;;;;;;5129555;27;20515;-39
2023/07/23 04:45:46;;;;;;;21.83;15.05;;;14.20;99.90;;;;;;5099359;27;20146;-39
2023/07/23 04:48:14;;;;;;;19.65;14.90;;;14.20;99.90;;;;;;5115598;27;20107;-39
2023/07/23 04:50:40;;;;;;;20.17;13.82;;;14.20;99.90;;;;;;5117207;27;20059;-39
2023/07/23 04:53:06;;;;;;;18.13;14.10;;;14.30;99.90;;;;;;5116602;27;20055;-40
2023/07/23 04:55:32;;;;;;;19.20;13.60;;;14.20;99.90;;;;;;5099106;27;20047;-40
2023/07/23 04:57:58;;;;;;;19.70;14.85;;;14.20;99.90;;;;;;5115192;27;20086;-40
2023/07/23 05:00:24;;;;;;;21.52;14.65;;;14.30;99.90;;;;;;5117143;27;20047;-40
2023/07/23 05:02:50;;;;;;;19.50;13.82;;;14.30;99.90;;;;;;5115982;27;20564;-40
2023/07/23 05:05:15;;;;;;;22.65;14.38;;;14.30;99.90;;;;;;5116583;27;20928;-40
2023/07/23 05:07:41;;;;;;;21.45;14.60;;;14.40;99.90;;;;;;5115223;27;20474;-40
2023/07/23 05:10:07;;;;;;;22.05;14.98;;;14.30;99.90;;;;;;5116517;27;20088;-40
2023/07/23 05:12:33;;;;;;;19.85;14.38;;;14.30;99.90;;;;;;5097612;27;20538;-40
2023/07/23 05:15:12;;;;;;;21.92;16.05;;;14.40;99.90;;;;;;5113150;27;20497;-40
2023/07/23 05:17:39;;;;;;;21.83;14.77;;;14.40;99.90;;;;;;5115403;27;20051;-40
2023/07/23 05:20:09;;;;;;;18.73;15.48;;;14.40;99.90;;;;;;5116474;27;20455;-40
2023/07/23 05:22:37;;;;;;;21.75;15.70;;;14.30;99.90;;;;;;5080559;27;20408;-40
2023/07/23 05:25:03;;;;;;;18.30;14.60;;;14.40;99.90;;;;;;5110856;27;20104;-40
2023/07/23 05:27:29;;;;;;;20.65;14.70;;;14.30;99.90;;;;;;5115717;27;20046;-40
2023/07/23 05:29:55;;;;;;;20.42;15.05;;;14.40;99.90;;;;;;5116567;27;20054;-40
2023/07/23 05:32:21;;;;;;;21.92;14.73;;;14.50;99.90;;;;;;5096930;27;20055;-40
2023/07/23 05:34:46;;;;;;;19.48;16.08;;;14.50;99.90;;;;;;5111224;27;20050;-40
2023/07/23 05:37:12;;;;;;;21.52;15.35;;;14.50;99.90;;;;;;5135237;27;20092;-40
2023/07/23 05:39:38;;;;;;;17.45;15.27;;;14.50;99.90;;;;;;5136394;27;20393;-40
2023/07/23 05:42:04;;;;;;;18.95;15.48;;;14.60;99.90;;;;;;5136942;27;20043;-40
2023/07/23 05:44:30;;;;;;;21.00;15.80;;;14.50;99.90;;;;;;5133262;27;20046;-40
2023/07/23 05:46:56;;;;;;;20.88;15.25;;;14.60;99.90;;;;;;5128354;27;20043;-40
2023/07/23 05:49:21;;;;;;;19.58;13.88;;;14.50;99.90;;;;;;5097784;27;20081;-40
2023/07/23 05:51:48;;;;;;;17.83;15.48;;;14.60;99.90;;;;;;5115749;27;20158;-40
2023/07/23 05:54:13;;;;;;;19.25;15.73;;;14.50;99.90;;;;;;5115402;27;20058;-40
2023/07/23 05:56:39;;;;;;;19.42;15.15;;;14.50;99.90;;;;;;5114906;27;20039;-40
2023/07/23 05:59:05;;;;;;;20.98;15.77;;;14.60;99.90;;;;;;5115299;27;20112;-40
2023/07/23 06:01:30;;;;;;;19.58;16.08;;;14.50;99.90;;;;;;5096466;27;20501;-40
2023/07/23 06:03:56;;;;;;;20.63;15.10;;;14.60;99.90;;;;;;5115815;27;20093;-40
2023/07/23 06:06:22;;;;;;;18.92;14.80;;;14.70;99.90;;;;;;5116441;27;20046;-40
2023/07/23 06:08:48;;;;;;;21.52;14.27;;;14.70;99.90;;;;;;5115160;27;20058;-40
2023/07/23 06:11:14;;;;;;;15.63;13.98;;;14.80;99.90;;;;;;5115873;27;20047;-40
2023/07/23 06:13:40;;;;;;;18.42;14.80;;;14.90;99.90;;;;;;5115344;27;20074;-40
2023/07/23 06:16:05;;;;;;;17.02;14.48;;;14.90;99.90;;;;;;5111640;27;20707;-40
2023/07/23 06:18:31;;;;;;;19.33;15.15;;;14.80;99.90;;;;;;5114461;27;20261;-40
2023/07/23 06:20:56;;;;;;;20.20;13.95;;;14.90;99.90;;;;;;5115625;27;20038;-40
2023/07/23 06:23:22;;;;;;;17.83;13.60;;;14.90;99.90;;;;;;5110392;27;20047;-40
2023/07/23 06:25:54;;;;;;;22.38;15.05;;;14.90;99.90;;;;;;5134368;27;20038;-40
2023/07/23 06:28:20;;;;;;;19.60;14.90;;;14.90;99.90;;;;;;5135221;27;20046;-40
2023/07/23 06:30:46;;;;;;;19.20;15.32;;;14.90;99.90;;;;;;5102469;27;20108;-40
2023/07/23 06:33:11;;;;;;;20.58;14.43;;;14.90;99.90;;;;;;5115455;27;20047;-40
2023/07/23 06:35:41;;;;;;;17.95;14.35;;;15.00;99.90;;;;;;5115984;27;20051;-40
2023/07/23 06:38:07;;;;;;;19.30;15.25;;;15.00;99.90;;;;;;5098531;27;20062;-40
2023/07/23 06:40:32;;;;;;;18.73;14.82;;;15.00;99.90;;;;;;5119118;27;20486;-40
2023/07/23 06:42:58;;;;;;;20.25;15.85;;;15.00;99.90;;;;;;5098892;27;20133;-40
2023/07/23 06:45:24;;;;;;;20.38;15.07;;;14.90;99.90;;;;;;5119256;27;20460;-40
2023/07/23 06:47:49;;;;;;;19.77;15.82;;;15.00;99.90;;;;;;5118482;27;20050;-40
2023/07/23 06:50:17;;;;;;;16.27;14.57;;;14.90;99.90;;;;;;5119316;27;20067;-40
2023/07/23 06:52:43;;;;;;;20.83;16.08;;;15.00;99.90;;;;;;5119369;27;20070;-40
2023/07/23 06:55:09;;;;;;;21.38;15.30;;;15.00;99.90;;;;;;5099733;27;20565;-40
2023/07/23 06:57:35;;;;;;;19.58;16.05;;;15.00;99.90;;;;;;5117987;27;20035;-40
2023/07/23 07:00:02;;;;;;;20.95;15.10;;;15.10;99.90;;;;;;5119268;27;20457;-40
2023/07/23 07:02:28;;;;;;;18.45;13.73;;;15.10;99.90;;;;;;5118499;27;20683;-40
2023/07/23 07:04:54;;;;;;;21.35;14.95;;;15.20;99.90;;;;;;5120104;27;20061;-40
2023/07/23 07:07:19;;;;;;;20.05;14.52;;;15.20;99.90;;;;;;5117999;27;20046;-40
2023/07/23 07:09:46;;;;;;;23.00;15.55;;;15.20;99.90;;;;;;5100785;27;20515;-40
2023/07/23 07:12:11;;;;;;;22.77;15.30;;;15.30;99.90;;;;;;5080844;27;20057;-41
2023/07/23 07:14:37;;;;;;;23.02;14.27;;;15.20;99.90;;;;;;5100555;27;20047;-40
2023/07/23 07:17:03;;;;;;;23.17;14.50;;;15.30;99.90;;;;;;5099287;27;20050;-40
2023/07/23 07:19:29;;;;;;;21.50;15.30;;;15.40;99.90;;;;;;5098841;27;20081;-40
2023/07/23 07:21:54;;;;;;;20.50;14.55;;;15.50;99.90;;;;;;5100307;27;20082;-41
2023/07/23 07:24:20;;;;;;;24.55;15.32;;;15.50;99.90;;;;;;5119901;27;20047;-40
2023/07/23 07:26:46;;;;;;;25.45;15.45;;;15.50;99.90;;;;;;5103802;27;20073;-40
2023/07/23 07:29:11;;;;;;;21.92;14.43;;;15.40;99.90;;;;;;5106525;27;20047;-40
2023/07/23 07:31:37;;;;;;;20.80;14.50;;;15.50;99.90;;;;;;5098135;27;20043;-40
2023/07/23 07:34:03;;;;;;;19.67;14.40;;;15.50;99.90;;;;;;5098669;27;20274;-40
2023/07/23 07:36:28;;;;;;;22.17;15.43;;;15.50;99.90;;;;;;5110181;27;20051;-40
2023/07/23 07:38:54;;;;;;;24.88;16.75;;;15.50;99.90;;;;;;5118753;27;20043;-40
2023/07/23 07:41:20;;;;;;;25.88;15.32;;;15.50;99.90;;;;;;5104155;27;20131;-40
2023/07/23 07:43:46;;;;;;;20.15;16.65;;;15.50;99.90;;;;;;5102483;27;20599;-40
2023/07/23 07:46:11;;;;;;;25.23;15.95;;;15.50;99.90;;;;;;5100932;27;20138;-40
2023/07/23 07:48:37;;;;;;;22.65;17.10;;;15.50;99.90;;;;;;5099564;27;20047;-40
2023/07/23 07:51:05;;;;;;;22.83;15.82;;;15.50;99.90;;;;;;5114133;27;20043;-40
2023/07/23 07:53:32;;;;;;;19.67;15.98;;;15.50;99.90;;;;;;5096356;27;20129;-40
2023/07/23 07:55:58;;;;;;;20.77;16.35;;;15.40;99.90;;;;;;5105473;27;20047;-40
2023/07/23 07:58:25;;;;;;;21.63;16.23;;;15.60;99.90;;;;;;5108314;27;20043;-40
2023/07/23 08:00:54;;;;;;;20.20;17.40;;;15.50;99.90;;;;;;5091813;27;20054;-40
2023/07/23 08:03:25;;;;;;;18.42;16.52;;;15.50;99.90;;;;;;5069390;27;20209;-40
2023/07/23 08:05:52;;;;;;;19.50;16.40;;;15.40;99.90;;;;;;5116565;27;20146;-40
2023/07/23 08:08:22;;;;;;;20.55;17.45;;;15.40;99.90;;;;;;5100672;27;20048;-40
2023/07/23 08:10:48;;;;;;;19.90;17.55;;;15.40;99.90;;;;;;5110075;27;20547;-40
2023/07/23 08:13:15;;;;;;;18.50;16.52;;;15.50;99.90;;;;;;5112118;27;20053;-40
2023/07/23 08:15:41;;;;;;;19.85;17.38;;;15.40;99.90;;;;;;5108953;27;20043;-40
2023/07/23 08:18:06;;;;;;;20.20;18.10;;;15.40;99.90;;;;;;5102018;27;20046;-40
2023/07/23 08:20:34;;;;;;;21.48;18.10;;;15.50;99.90;;;;;;5102858;27;20076;-40
2023/07/23 08:23:01;;;;;;;19.35;16.70;;;15.40;99.90;;;;;;5094143;27;20046;-40
2023/07/23 08:25:30;;;;;;;19.85;17.67;;;15.50;99.90;;;;;;5114950;27;20520;-40
2023/07/23 08:28:01;;;;;;;20.60;17.83;;;15.40;99.90;;;;;;5106370;27;20044;-40
2023/07/23 08:30:30;;;;;;;19.52;16.80;;;15.50;99.90;;;;;;5102426;27;20051;-41
2023/07/23 08:33:01;;;;;;;19.60;17.60;;;15.40;99.90;;;;;;5096147;27;20129;-38
2023/07/23 08:35:28;;;;;;;19.10;17.10;;;15.50;99.90;;;;;;5095038;27;20419;-38
2023/07/23 08:37:55;;;;;;;20.17;17.63;;;15.50;99.90;;;;;;5103783;27;20497;-37
2023/07/23 08:40:23;;;;;;;20.58;17.85;;;15.60;99.90;;;;;;5111638;27;20061;-40
2023/07/23 08:42:55;;;;;;;22.27;17.90;;;15.60;99.90;;;;;;5103627;27;20104;-40
2023/07/23 08:45:41;;;;;;;21.00;18.80;;;15.60;99.90;;;;;;5104880;27;20043;-40
2023/07/23 08:48:15;;;;;;;18.67;16.67;;;15.70;99.90;;;;;;5094044;27;20464;-40
2023/07/23 08:50:49;;;;;;;19.88;17.75;;;15.70;99.90;;;;;;5104880;27;20039;-40
2023/07/23 08:53:17;;;;;;;24.65;17.92;;;15.70;99.90;;;;;;5079277;27;20043;-40
2023/07/23 08:55:47;;;;;;;19.33;16.27;;;15.80;99.90;;;;;;5116276;27;20492;-40
2023/07/23 08:58:15;;;;;;;19.13;17.15;;;15.80;99.90;;;;;;5101465;27;20071;-40
2023/07/23 09:00:46;;;;;;;19.27;16.55;;;15.90;99.90;;;;;;5113535;27;20128;-40
2023/07/23 09:03:14;;;;;;;18.50;16.60;;;15.90;99.90;;;;;;5110439;27;20080;-41
2023/07/23 09:05:40;;;;;;;17.00;15.40;;;15.90;99.90;;;;;;5104871;27;20141;-40
2023/07/23 09:08:06;;;;;;;17.85;16.02;;;15.80;99.90;;;;;;5111673;27;20035;-40
2023/07/23 09:10:32;;;;;;;18.85;16.73;;;15.90;99.90;;;;;;5096719;27;20378;-40
2023/07/23 09:12:58;;;;;;;17.08;15.07;;;15.90;99.90;;;;;;5103547;27;20129;-40
2023/07/23 09:15:23;;;;;;;16.98;15.13;;;15.90;99.90;;;;;;5104216;27;20079;-40
2023/07/23 09:17:50;;;;;;;19.67;15.20;;;15.90;99.90;;;;;;5098963;27;20508;-40
2023/07/23 09:20:18;;;;;;;18.55;15.77;;;15.90;99.90;;;;;;5108533;27;20082;-40
2023/07/23 09:22:45;;;;;;;19.10;17.02;;;15.80;99.90;;;;;;5103664;27;20039;-41
2023/07/23 09:25:11;;;;;;;19.77;16.92;;;15.80;99.90;;;;;;5099972;27;20081;-41
2023/07/23 09:27:38;;;;;;;19.85;17.20;;;15.90;99.90;;;;;;5105102;27;20477;-40
2023/07/23 09:30:04;;;;;;;19.45;16.08;;;15.90;99.90;;;;;;5104983;27;20429;-40
2023/07/23 09:32:30;;;;;;;23.45;17.05;;;15.90;99.90;;;;;;5095674;27;20097;-40
2023/07/23 09:34:57;;;;;;;18.30;16.40;;;15.90;99.90;;;;;;5099374;27;20043;-40
2023/07/23 09:37:26;;;;;;;17.75;15.90;;;15.90;99.90;;;;;;5094531;27;20071;-40
2023/07/23 09:39:58;;;;;;;19.38;16.08;;;15.80;99.90;;;;;;5086123;27;20210;-41
2023/07/23 09:42:24;;;;;;;16.92;15.23;;;15.90;99.90;;;;;;5108298;27;20152;-40
2023/07/23 09:44:51;;;;;;;19.63;15.77;;;15.90;99.90;;;;;;5099024;27;20051;-40
2023/07/23 09:47:24;;;;;;;17.63;15.10;;;15.90;99.90;;;;;;5107881;27;20054;-40
2023/07/23 09:49:53;;;;;;;;;;;16.00;99.90;;;;;;5111880;27;20055;-40
2023/07/23 09:52:22;;;;;;;19.90;16.13;;;15.90;99.90;;;;;;5100416;27;19932;-40
2023/07/23 09:54:49;;;;;;;20.25;15.68;;;15.90;99.90;;;;;;5109940;27;20158;-41
2023/07/23 09:57:15;;;;;;;20.58;16.77;;;16.00;99.90;;;;;;5104359;27;20043;-40
2023/07/23 09:59:42;;;;;;;19.25;17.20;;;16.00;99.90;;;;;;5098502;27;20047;-40
2023/07/23 10:02:09;;;;;;;20.08;16.38;;;16.10;99.90;;;;;;5094672;27;20048;-40
2023/07/23 10:04:35;;;;;;;18.77;15.57;;;16.10;99.90;;;;;;5109361;27;20091;-40
2023/07/23 10:07:02;;;;;;;18.40;15.55;;;16.10;99.90;;;;;;5121014;27;20046;-41
2023/07/23 10:09:28;;;;;;;22.13;17.00;;;16.20;99.90;;;;;;5113451;27;20623;-40
2023/07/23 10:11:54;;;;;;;17.90;15.98;;;16.20;99.90;;;;;;5115485;27;20442;-40
2023/07/23 10:14:21;;;;;;;19.75;15.82;;;16.20;99.90;;;;;;5092634;28;20047;-40
2023/07/23 10:16:48;;;;;;;17.75;15.85;;;16.30;99.90;;;;;;5115296;27;20467;-41
2023/07/23 10:19:14;;;;;;;17.95;15.63;;;16.30;99.90;;;;;;5115503;27;20134;-40
2023/07/23 10:21:45;;;;;;;20.17;15.10;;;16.30;99.90;;;;;;5107698;27;20058;-40
2023/07/23 10:24:11;;;;;;;17.15;15.35;;;16.30;99.90;;;;;;5117477;27;20043;-41
2023/07/23 10:26:41;;;;;;;18.98;14.90;;;16.40;99.90;;;;;;5113720;27;20091;-40
2023/07/23 10:29:09;;;;;;;18.20;13.93;;;16.40;99.90;;;;;;5114715;27;20049;-40
2023/07/23 10:31:35;;;;;;;18.05;16.25;;;16.40;99.90;;;;;;5114984;27;20051;-38
2023/07/23 10:34:01;;;;;;;17.30;14.13;;;16.40;99.90;;;;;;5115478;27;20042;-40
2023/07/23 10:36:27;;;;;;;18.02;14.90;;;16.50;99.90;;;;;;5094971;28;20039;-40
2023/07/23 10:39:18;;;;;;;15.82;14.07;;;16.40;99.90;;;;;;5115364;27;20527;-40
2023/07/23 10:41:54;;;;;;;17.08;13.93;;;16.40;99.90;;;;;;5096889;28;20047;-40
2023/07/23 10:44:29;;;;;;;17.58;14.32;;;16.50;99.90;;;;;;5124608;27;20352;-40
2023/07/23 10:46:58;;;;;;;16.45;13.85;;;16.50;99.90;;;;;;5135562;27;20039;-40
2023/07/23 10:49:29;;;;;;;15.40;12.77;;;16.60;99.90;;;;;;5128631;27;20577;-40
2023/07/23 10:52:11;;;;;;;15.20;13.45;;;16.60;99.90;;;;;;5098910;27;20047;-41
2023/07/23 10:54:37;;;;;;;17.58;14.15;;;16.60;99.90;;;;;;5097373;27;20052;-42
2023/07/23 10:57:05;;;;;;;15.65;13.70;;;16.60;99.90;;;;;;5095197;27;20112;-40
2023/07/23 10:59:30;;;;;;;18.65;14.55;;;16.70;99.90;;;;;;5111803;27;20528;-41
2023/07/23 11:01:56;;;;;;;16.40;13.73;;;16.70;99.90;;;;;;5114956;27;20047;-41
2023/07/23 11:04:26;;;;;;;17.77;13.90;;;16.60;99.90;;;;;;5115704;27;20370;-41
2023/07/23 11:07:00;;;;;;;19.02;15.38;;;16.60;99.90;;;;;;5113579;27;20050;-41
2023/07/23 11:09:37;;;;;;;17.85;15.80;;;16.60;99.90;;;;;;5095598;28;20461;-40
2023/07/23 11:12:07;;;;;;;19.70;15.65;;;16.60;99.90;;;;;;5114817;27;20087;-41
2023/07/23 11:14:36;;;;;;;17.08;15.20;;;16.60;99.90;;;;;;5110933;27;20066;-41
2023/07/23 11:17:03;;;;;;;21.33;15.55;;;16.60;99.90;;;;;;5113072;27;20167;-41
2023/07/23 11:19:31;;;;;;;17.88;15.73;;;16.60;99.90;;;;;;5081060;28;20054;-40
2023/07/23 11:21:59;;;;;;;16.38;14.68;;;16.60;99.90;;;;;;5075456;27;20459;-41
2023/07/23 11:24:26;;;;;;;17.83;15.73;;;16.60;99.90;;;;;;5105363;27;20071;-40
2023/07/23 11:26:52;;;;;;;16.30;14.57;;;16.60;99.90;;;;;;5085726;27;20055;-40
2023/07/23 11:29:18;;;;;;;16.63;14.90;;;16.60;99.90;;;;;;5102575;27;20039;-41
2023/07/23 11:31:45;;;;;;;16.13;14.43;;;16.60;99.90;;;;;;5101123;27;20092;-40
2023/07/23 11:34:12;;;;;;;15.68;13.98;;;16.60;99.90;;;;;;5110127;27;20131;-40
2023/07/23 11:36:38;;;;;;;20.05;14.13;;;16.60;99.90;;;;;;5103997;27;20517;-41
2023/07/23 11:39:05;;;;;;;22.15;13.02;;;16.70;99.90;;;;;;5100016;27;20165;-40
2023/07/23 11:41:33;;;;;;;15.32;13.73;;;16.70;99.90;;;;;;5100833;27;20048;-40
2023/07/23 11:44:03;;;;;;;13.85;12.45;;;16.70;99.90;;;;;;5100853;27;20084;-41
2023/07/23 11:46:32;;;;;;;13.50;11.30;;;16.70;99.90;;;;;;5101897;27;20040;-40
2023/07/23 11:48:59;;;;;;;13.85;11.55;;;16.80;99.90;;;;;;5088267;27;20586;-40
2023/07/23 11:51:25;;;;;;;12.32;11.02;;;16.90;99.90;;;;;;5103306;27;20671;-39
2023/07/23 11:53:52;;;;;;;13.02;11.63;;;17.20;99.90;;;;;;5090910;27;20055;-38
2023/07/23 11:56:21;;;;;;;11.55;10.23;;;17.40;99.90;;;;;;5081349;27;20501;-38
2023/07/23 11:58:47;;;;;;;10.95;9.85;;;17.70;99.90;;;;;;5099776;27;20063;-39
2023/07/23 12:01:13;;;;;;;11.13;10.02;;;18.10;99.90;;;;;;5108719;27;20059;-38
2023/07/23 12:03:44;;;;;;;11.88;10.73;;;18.30;99.90;;;;;;5100764;27;20417;-41
2023/07/23 12:06:14;;;;;;;11.95;10.85;;;18.30;99.90;;;;;;5101715;27;20476;-42
2023/07/23 12:08:42;;;;;;;11.48;10.38;;;18.30;99.90;;;;;;5105550;27;20565;-39
2023/07/23 12:11:13;;;;;;;11.63;10.27;;;18.40;99.90;;;;;;5105568;27;20039;-40
2023/07/23 12:13:43;;;;;;;12.70;11.40;;;18.60;99.90;;;;;;5104280;27;20099;-39
2023/07/23 12:16:14;;;;;;;11.88;10.52;;;18.70;99.90;;;;;;5088770;27;20140;-39
2023/07/23 12:18:44;;;;;;;12.20;11.00;;;18.90;99.90;;;;;;5113639;27;20405;-40
2023/07/23 12:21:10;;;;;;;11.95;10.85;;;19.20;99.90;;;;;;5094314;27;20057;-39
2023/07/23 12:23:42;;;;;;;11.85;10.77;;;19.40;99.90;;;;;;5108838;27;20039;-40
2023/07/23 12:26:09;;;;;;;12.07;10.98;;;19.50;99.90;;;;;;5110963;27;20331;-39